LFRG

Deauville-Saint-Gatien Airport

Deauville, France
TAF LFRG 230500Z 2306/2315 33010KT 9999 BKN030 TEMPO 2306/2315 3000 SHRAGS BKN015CB BECMG 2308/2310 34015G25KT
Issued Valid From Valid To
Jan-23 @ 05:00 UTC
(2 hours ago)
Jan-23 @ 06:00 UTC
(an hour ago)
Jan-23 @ 15:00 UTC
(in 8 hours)
Jan-23 @ 06:00 to Jan-23 @ 08:00
TAF LFRG 230500Z 2306/2315 33010KT 9999 BKN030
Wind Visibility Clouds
330° at 10 knots 10,000+ meters
  • Broken at 3,000' AGL
Temporary Jan-23 @ 06:00 to Jan-23 @ 15:00
TEMPO 2306/2315 3000 SHRAGS BKN015CB
Visibility Clouds Conditions
2,993 meters
  • Broken at 1,500' AGL
  • Rain
  • Small hail
Becoming Jan-23 @ 08:00 to Jan-23 @ 15:00
BECMG 2308/2310 34015G25KT
Wind Visibility Clouds
340° at 15 knots
 Gusting to 25 knots
10,000+ meters
  • Broken at 3,000' AGL
TAF LFRG 230500Z 2306/2315 33010KT 9999 BKN030 TEMPO 2306/2315 3000 SHRAGS BKN015CB BECMG 2308/2310 34015G25KT
Issued Jan-23 @ 05:00 UTC
(2 hours ago)
Valid From Jan-23 @ 06:00 UTC
(an hour ago)
Valid To Jan-23 @ 15:00 UTC
(in 8 hours)
Jan-23 @ 06:00 - Jan-23 @ 08:00
Wind Visibility
330° at 10 knots 10,000+ meters
Clouds
  • Broken at 3,000' AGL
Temporary Jan-23 @ 06:00 - Jan-23 @ 15:00
Clouds
  • Broken at 1,500' AGL
Conditions
  • Rain
  • Small hail
Becoming Jan-23 @ 08:00 - Jan-23 @ 15:00
Wind Visibility
340° at 15 knots
 Gusting to 25 knots
10,000+ meters
Clouds
  • Broken at 3,000' AGL